Terminal Aerodrome Forecast
Issued by NWS

Home | Current Version | Previous Version | Text Only | Print | Product List | Glossary On
Versions: 1 2 3 4 5 6 7 8 9 10 11 12 13
000
FTUS43 KSGF 121726
TAFJLN
TAF
KJLN 121726Z 1218/1318 29008KT P6SM SKC
     FM130000 25005KT P6SM SKC
     FM130900 21012KT P6SM SKC WS020/24045KT
     FM131400 22015G27KT P6SM SKC=

USA.gov is the U.S. government's official web portal to all federal, state and local government web resources and services.